sensor_id;sensor_type;location;lat;lon;timestamp;temperature;humidity
1800;DHT22;919;48.274;12.292;2023-02-20T00:01:51;7.80;99.90
1800;DHT22;919;48.274;12.292;2023-02-20T00:04:18;7.80;99.90
1800;DHT22;919;48.274;12.292;2023-02-20T00:06:45;7.80;99.90
1800;DHT22;919;48.274;12.292;2023-02-20T00:09:12;7.80;99.90
1800;DHT22;919;48.274;12.292;2023-02-20T00:11:39;7.80;99.90
1800;DHT22;919;48.274;12.292;2023-02-20T00:14:06;7.80;99.90
1800;DHT22;919;48.274;12.292;2023-02-20T00:16:34;7.80;99.90
1800;DHT22;919;48.274;12.292;2023-02-20T00:19:01;7.80;99.90
1800;DHT22;919;48.274;12.292;2023-02-20T00:21:28;7.80;99.90
1800;DHT22;919;48.274;12.292;2023-02-20T00:23:54;7.80;99.90
1800;DHT22;919;48.274;12.292;2023-02-20T00:26:21;7.70;99.90
1800;DHT22;919;48.274;12.292;2023-02-20T00:28:48;7.70;99.90
1800;DHT22;919;48.274;12.292;2023-02-20T00:31:16;7.70;99.90
1800;DHT22;919;48.274;12.292;2023-02-20T00:33:45;7.60;99.90
1800;DHT22;919;48.274;12.292;2023-02-20T00:36:16;7.70;99.90
1800;DHT22;919;48.274;12.292;2023-02-20T00:38:44;7.70;99.90
1800;DHT22;919;48.274;12.292;2023-02-20T00:41:11;7.60;99.90
1800;DHT22;919;48.274;12.292;2023-02-20T00:43:39;7.70;99.90
1800;DHT22;919;48.274;12.292;2023-02-20T00:46:05;7.60;99.90
1800;DHT22;919;48.274;12.292;2023-02-20T00:48:32;7.60;99.90
1800;DHT22;919;48.274;12.292;2023-02-20T00:51:00;7.60;99.90
1800;DHT22;919;48.274;12.292;2023-02-20T00:53:27;7.60;99.90
1800;DHT22;919;48.274;12.292;2023-02-20T00:55:53;7.70;99.90
1800;DHT22;919;48.274;12.292;2023-02-20T00:58:20;7.70;99.90
1800;DHT22;919;48.274;12.292;2023-02-20T01:00:47;7.70;99.90
1800;DHT22;919;48.274;12.292;2023-02-20T01:03:13;7.70;99.90
1800;DHT22;919;48.274;12.292;2023-02-20T01:05:40;7.70;99.90
1800;DHT22;919;48.274;12.292;2023-02-20T01:08:08;7.80;99.90
1800;DHT22;919;48.274;12.292;2023-02-20T01:10:35;7.70;99.90
1800;DHT22;919;48.274;12.292;2023-02-20T01:13:01;7.70;99.90
1800;DHT22;919;48.274;12.292;2023-02-20T01:15:28;7.70;99.90
1800;DHT22;919;48.274;12.292;2023-02-20T01:17:55;7.70;99.90
1800;DHT22;919;48.274;12.292;2023-02-20T01:20:21;7.70;99.90
1800;DHT22;919;48.274;12.292;2023-02-20T01:22:48;7.70;99.90
1800;DHT22;919;48.274;12.292;2023-02-20T01:25:16;7.70;99.90
1800;DHT22;919;48.274;12.292;2023-02-20T01:27:43;7.70;99.90
1800;DHT22;919;48.274;12.292;2023-02-20T01:30:10;7.70;99.90
1800;DHT22;919;48.274;12.292;2023-02-20T01:32:37;7.70;99.90
1800;DHT22;919;48.274;12.292;2023-02-20T01:35:04;7.70;99.90
1800;DHT22;919;48.274;12.292;2023-02-20T01:37:30;7.70;99.90
1800;DHT22;919;48.274;12.292;2023-02-20T01:39:57;7.70;99.90
1800;DHT22;919;48.274;12.292;2023-02-20T01:42:28;7.70;99.90
1800;DHT22;919;48.274;12.292;2023-02-20T01:45:13;7.70;99.90
1800;DHT22;919;48.274;12.292;2023-02-20T01:47:40;7.60;99.90
1800;DHT22;919;48.274;12.292;2023-02-20T01:50:08;7.60;99.90
1800;DHT22;919;48.274;12.292;2023-02-20T01:52:35;7.60;99.90
1800;DHT22;919;48.274;12.292;2023-02-20T01:55:07;7.60;99.90
1800;DHT22;919;48.274;12.292;2023-02-20T01:57:39;7.70;99.90
1800;DHT22;919;48.274;12.292;2023-02-20T02:00:09;7.60;99.90
1800;DHT22;919;48.274;12.292;2023-02-20T02:02:39;7.60;99.90
1800;DHT22;919;48.274;12.292;2023-02-20T02:05:09;7.70;99.90
1800;DHT22;919;48.274;12.292;2023-02-20T02:07:37;7.70;99.90
1800;DHT22;919;48.274;12.292;2023-02-20T02:10:08;7.70;99.90
1800;DHT22;919;48.274;12.292;2023-02-20T02:12:37;7.70;99.90
1800;DHT22;919;48.274;12.292;2023-02-20T02:15:12;7.80;99.90
1800;DHT22;919;48.274;12.292;2023-02-20T02:17:58;7.70;99.90
1800;DHT22;919;48.274;12.292;2023-02-20T02:20:47;7.70;99.90
1800;DHT22;919;48.274;12.292;2023-02-20T02:23:59;7.70;99.90
1800;DHT22;919;48.274;12.292;2023-02-20T02:26:52;7.70;99.90
1800;DHT22;919;48.274;12.292;2023-02-20T02:32:51;7.80;99.90
1800;DHT22;919;48.274;12.292;2023-02-20T02:38:21;7.70;99.90
1800;DHT22;919;48.274;12.292;2023-02-20T02:40:53;7.70;99.90
1800;DHT22;919;48.274;12.292;2023-02-20T02:43:26;7.70;99.90
1800;DHT22;919;48.274;12.292;2023-02-20T02:45:55;7.70;99.90
1800;DHT22;919;48.274;12.292;2023-02-20T02:48:27;7.60;99.90
1800;DHT22;919;48.274;12.292;2023-02-20T02:51:02;7.70;99.90
1800;DHT22;919;48.274;12.292;2023-02-20T02:53:32;7.70;99.90
1800;DHT22;919;48.274;12.292;2023-02-20T02:55:59;7.70;99.90
1800;DHT22;919;48.274;12.292;2023-02-20T02:58:46;7.70;99.90
1800;DHT22;919;48.274;12.292;2023-02-20T03:01:14;7.60;99.90
1800;DHT22;919;48.274;12.292;2023-02-20T03:03:44;7.70;99.90
1800;DHT22;919;48.274;12.292;2023-02-20T03:06:15;7.70;99.90
1800;DHT22;919;48.274;12.292;2023-02-20T03:08:50;7.70;99.90
1800;DHT22;919;48.274;12.292;2023-02-20T03:11:23;7.70;99.90
1800;DHT22;919;48.274;12.292;2023-02-20T03:13:52;7.60;99.90
1800;DHT22;919;48.274;12.292;2023-02-20T03:16:43;7.60;99.90
1800;DHT22;919;48.274;12.292;2023-02-20T03:19:12;7.70;99.90
1800;DHT22;919;48.274;12.292;2023-02-20T03:21:42;7.70;99.90
1800;DHT22;919;48.274;12.292;2023-02-20T03:24:13;7.60;99.90
1800;DHT22;919;48.274;12.292;2023-02-20T03:26:41;7.60;99.90
1800;DHT22;919;48.274;12.292;2023-02-20T03:29:12;7.60;99.90
1800;DHT22;919;48.274;12.292;2023-02-20T03:31:43;7.60;99.90
1800;DHT22;919;48.274;12.292;2023-02-20T03:34:13;7.60;99.90
1800;DHT22;919;48.274;12.292;2023-02-20T03:37:04;7.60;99.90
1800;DHT22;919;48.274;12.292;2023-02-20T03:39:52;7.60;99.90
1800;DHT22;919;48.274;12.292;2023-02-20T03:42:41;7.60;99.90
1800;DHT22;919;48.274;12.292;2023-02-20T03:45:27;7.60;99.90
1800;DHT22;919;48.274;12.292;2023-02-20T03:47:59;7.60;99.90
1800;DHT22;919;48.274;12.292;2023-02-20T03:50:28;7.60;99.90
1800;DHT22;919;48.274;12.292;2023-02-20T03:53:12;7.60;99.90
1800;DHT22;919;48.274;12.292;2023-02-20T03:55:41;7.60;99.90
1800;DHT22;919;48.274;12.292;2023-02-20T03:58:10;7.70;99.90
1800;DHT22;919;48.274;12.292;2023-02-20T04:00:40;7.60;99.90
1800;DHT22;919;48.274;12.292;2023-02-20T04:03:11;7.60;99.90
1800;DHT22;919;48.274;12.292;2023-02-20T04:05:42;7.60;99.90
1800;DHT22;919;48.274;12.292;2023-02-20T04:08:14;7.70;99.90
1800;DHT22;919;48.274;12.292;2023-02-20T04:10:47;7.70;99.90
1800;DHT22;919;48.274;12.292;2023-02-20T04:13:17;7.70;99.90
1800;DHT22;919;48.274;12.292;2023-02-20T04:15:45;7.60;99.90
1800;DHT22;919;48.274;12.292;2023-02-20T04:18:14;7.50;99.90
1800;DHT22;919;48.274;12.292;2023-02-20T04:20:42;7.50;99.90
1800;DHT22;919;48.274;12.292;2023-02-20T04:23:15;7.50;99.90
1800;DHT22;919;48.274;12.292;2023-02-20T04:25:46;7.50;99.90
1800;DHT22;919;48.274;12.292;2023-02-20T04:28:14;7.40;99.90
1800;DHT22;919;48.274;12.292;2023-02-20T04:30:42;7.40;99.90
1800;DHT22;919;48.274;12.292;2023-02-20T04:33:09;7.30;99.90
1800;DHT22;919;48.274;12.292;2023-02-20T04:35:37;7.30;99.90
1800;DHT22;919;48.274;12.292;2023-02-20T04:38:03;7.20;99.90
1800;DHT22;919;48.274;12.292;2023-02-20T04:40:30;7.20;99.90
1800;DHT22;919;48.274;12.292;2023-02-20T04:42:58;7.10;99.90
1800;DHT22;919;48.274;12.292;2023-02-20T04:45:25;7.10;99.90
1800;DHT22;919;48.274;12.292;2023-02-20T04:47:52;7.10;99.90
1800;DHT22;919;48.274;12.292;2023-02-20T04:50:21;7.10;99.90
1800;DHT22;919;48.274;12.292;2023-02-20T04:52:47;7.00;99.90
1800;DHT22;919;48.274;12.292;2023-02-20T04:55:14;6.90;99.90
1800;DHT22;919;48.274;12.292;2023-02-20T04:57:41;6.90;99.90
1800;DHT22;919;48.274;12.292;2023-02-20T05:00:11;6.80;99.90
1800;DHT22;919;48.274;12.292;2023-02-20T05:02:38;6.70;99.90
1800;DHT22;919;48.274;12.292;2023-02-20T05:05:06;6.70;99.90
1800;DHT22;919;48.274;12.292;2023-02-20T05:07:40;6.60;99.90
1800;DHT22;919;48.274;12.292;2023-02-20T05:10:07;6.60;99.90
1800;DHT22;919;48.274;12.292;2023-02-20T05:12:34;6.60;99.90
1800;DHT22;919;48.274;12.292;2023-02-20T05:15:00;6.50;99.90
1800;DHT22;919;48.274;12.292;2023-02-20T05:17:28;6.40;99.90
1800;DHT22;919;48.274;12.292;2023-02-20T05:19:55;6.40;99.90
1800;DHT22;919;48.274;12.292;2023-02-20T05:22:22;6.30;99.90
1800;DHT22;919;48.274;12.292;2023-02-20T05:24:49;6.40;99.90
1800;DHT22;919;48.274;12.292;2023-02-20T05:27:17;6.30;99.90
1800;DHT22;919;48.274;12.292;2023-02-20T05:29:45;6.30;99.90
1800;DHT22;919;48.274;12.292;2023-02-20T05:32:12;6.30;99.90
1800;DHT22;919;48.274;12.292;2023-02-20T05:34:41;6.20;99.90
1800;DHT22;919;48.274;12.292;2023-02-20T05:37:08;6.20;99.90
1800;DHT22;919;48.274;12.292;2023-02-20T05:39:34;6.10;99.90
1800;DHT22;919;48.274;12.292;2023-02-20T05:42:01;6.00;99.90
1800;DHT22;919;48.274;12.292;2023-02-20T05:44:28;5.90;99.90
1800;DHT22;919;48.274;12.292;2023-02-20T05:46:54;5.80;99.90
1800;DHT22;919;48.274;12.292;2023-02-20T05:49:22;5.70;99.90
1800;DHT22;919;48.274;12.292;2023-02-20T05:51:50;5.60;99.90
1800;DHT22;919;48.274;12.292;2023-02-20T05:54:17;5.50;99.90
1800;DHT22;919;48.274;12.292;2023-02-20T05:56:45;5.50;99.90
1800;DHT22;919;48.274;12.292;2023-02-20T05:59:15;5.40;99.90
1800;DHT22;919;48.274;12.292;2023-02-20T06:01:42;5.40;99.90
1800;DHT22;919;48.274;12.292;2023-02-20T06:04:09;5.50;99.90
1800;DHT22;919;48.274;12.292;2023-02-20T06:06:37;5.50;99.90
1800;DHT22;919;48.274;12.292;2023-02-20T06:09:06;5.50;99.90
1800;DHT22;919;48.274;12.292;2023-02-20T06:11:33;5.60;99.90
1800;DHT22;919;48.274;12.292;2023-02-20T06:14:00;5.70;99.90
1800;DHT22;919;48.274;12.292;2023-02-20T06:16:28;5.70;99.90
1800;DHT22;919;48.274;12.292;2023-02-20T06:18:56;5.60;99.90
1800;DHT22;919;48.274;12.292;2023-02-20T06:21:25;5.60;99.90
1800;DHT22;919;48.274;12.292;2023-02-20T06:23:53;5.60;99.90
1800;DHT22;919;48.274;12.292;2023-02-20T06:26:22;5.60;99.90
1800;DHT22;919;48.274;12.292;2023-02-20T06:28:49;5.70;99.90
1800;DHT22;919;48.274;12.292;2023-02-20T06:31:20;5.70;99.90
1800;DHT22;919;48.274;12.292;2023-02-20T06:33:47;5.80;99.90
1800;DHT22;919;48.274;12.292;2023-02-20T06:36:20;5.80;99.90
1800;DHT22;919;48.274;12.292;2023-02-20T06:38:46;5.80;99.90
1800;DHT22;919;48.274;12.292;2023-02-20T06:41:13;5.80;99.90
1800;DHT22;919;48.274;12.292;2023-02-20T06:43:41;5.70;99.90
1800;DHT22;919;48.274;12.292;2023-02-20T06:46:08;5.80;99.90
1800;DHT22;919;48.274;12.292;2023-02-20T06:48:42;5.90;99.90
1800;DHT22;919;48.274;12.292;2023-02-20T06:51:09;5.90;99.90
1800;DHT22;919;48.274;12.292;2023-02-20T06:53:36;6.00;99.90
1800;DHT22;919;48.274;12.292;2023-02-20T06:56:07;6.00;99.90
1800;DHT22;919;48.274;12.292;2023-02-20T06:58:35;6.20;99.90
1800;DHT22;919;48.274;12.292;2023-02-20T07:01:03;6.30;99.90
1800;DHT22;919;48.274;12.292;2023-02-20T07:03:30;6.50;99.90
1800;DHT22;919;48.274;12.292;2023-02-20T07:05:56;6.50;99.90
1800;DHT22;919;48.274;12.292;2023-02-20T07:08:23;6.60;99.90
1800;DHT22;919;48.274;12.292;2023-02-20T07:10:50;6.70;99.90
1800;DHT22;919;48.274;12.292;2023-02-20T07:13:19;6.90;99.90
1800;DHT22;919;48.274;12.292;2023-02-20T07:15:46;7.00;99.90
1800;DHT22;919;48.274;12.292;2023-02-20T07:18:14;7.00;99.90
1800;DHT22;919;48.274;12.292;2023-02-20T07:20:42;7.10;99.90
1800;DHT22;919;48.274;12.292;2023-02-20T07:23:09;7.20;99.90
1800;DHT22;919;48.274;12.292;2023-02-20T07:25:36;7.20;99.90
1800;DHT22;919;48.274;12.292;2023-02-20T07:28:02;7.20;99.90
1800;DHT22;919;48.274;12.292;2023-02-20T07:30:32;7.30;99.90
1800;DHT22;919;48.274;12.292;2023-02-20T07:32:59;7.30;99.90
1800;DHT22;919;48.274;12.292;2023-02-20T07:35:27;7.40;99.90
1800;DHT22;919;48.274;12.292;2023-02-20T07:37:53;7.40;99.90
1800;DHT22;919;48.274;12.292;2023-02-20T07:40:20;7.50;99.90
1800;DHT22;919;48.274;12.292;2023-02-20T07:42:47;7.50;99.90
1800;DHT22;919;48.274;12.292;2023-02-20T07:45:13;7.50;99.90
1800;DHT22;919;48.274;12.292;2023-02-20T07:47:40;7.60;99.90
1800;DHT22;919;48.274;12.292;2023-02-20T07:50:08;7.60;99.90
1800;DHT22;919;48.274;12.292;2023-02-20T07:52:36;7.70;99.90
1800;DHT22;919;48.274;12.292;2023-02-20T07:55:03;7.60;99.90
1800;DHT22;919;48.274;12.292;2023-02-20T07:57:31;7.70;99.90
1800;DHT22;919;48.274;12.292;2023-02-20T07:59:59;7.80;99.90
1800;DHT22;919;48.274;12.292;2023-02-20T08:02:25;7.80;99.90
1800;DHT22;919;48.274;12.292;2023-02-20T08:04:52;7.90;99.90
1800;DHT22;919;48.274;12.292;2023-02-20T08:07:19;7.90;99.90
1800;DHT22;919;48.274;12.292;2023-02-20T08:09:47;8.00;99.90
1800;DHT22;919;48.274;12.292;2023-02-20T08:12:14;8.00;99.90
1800;DHT22;919;48.274;12.292;2023-02-20T08:14:41;8.10;99.90
1800;DHT22;919;48.274;12.292;2023-02-20T08:17:07;8.10;99.90
1800;DHT22;919;48.274;12.292;2023-02-20T08:19:36;8.20;99.90
1800;DHT22;919;48.274;12.292;2023-02-20T08:22:03;8.20;99.90
1800;DHT22;919;48.274;12.292;2023-02-20T08:24:29;8.30;99.90
1800;DHT22;919;48.274;12.292;2023-02-20T08:26:58;8.30;99.90
1800;DHT22;919;48.274;12.292;2023-02-20T08:29:25;8.40;99.90
1800;DHT22;919;48.274;12.292;2023-02-20T08:31:52;8.40;99.90
1800;DHT22;919;48.274;12.292;2023-02-20T08:34:18;8.40;99.90
1800;DHT22;919;48.274;12.292;2023-02-20T08:36:45;8.50;99.90
1800;DHT22;919;48.274;12.292;2023-02-20T08:39:12;8.60;99.90
1800;DHT22;919;48.274;12.292;2023-02-20T08:41:42;8.70;99.90
1800;DHT22;919;48.274;12.292;2023-02-20T08:44:10;8.70;99.90
1800;DHT22;919;48.274;12.292;2023-02-20T08:46:44;8.70;99.90
1800;DHT22;919;48.274;12.292;2023-02-20T08:49:11;8.60;99.90
1800;DHT22;919;48.274;12.292;2023-02-20T08:51:38;8.70;99.90
1800;DHT22;919;48.274;12.292;2023-02-20T08:54:04;8.60;99.90
1800;DHT22;919;48.274;12.292;2023-02-20T08:56:31;8.60;99.90
1800;DHT22;919;48.274;12.292;2023-02-20T08:58:58;8.60;99.90
1800;DHT22;919;48.274;12.292;2023-02-20T09:01:26;8.70;99.90
1800;DHT22;919;48.274;12.292;2023-02-20T09:03:52;8.70;99.90
1800;DHT22;919;48.274;12.292;2023-02-20T09:06:20;8.60;99.90
1800;DHT22;919;48.274;12.292;2023-02-20T09:08:49;8.70;99.90
1800;DHT22;919;48.274;12.292;2023-02-20T09:11:15;8.60;99.90
1800;DHT22;919;48.274;12.292;2023-02-20T09:13:43;8.70;99.90
1800;DHT22;919;48.274;12.292;2023-02-20T09:16:10;8.80;99.90
1800;DHT22;919;48.274;12.292;2023-02-20T09:18:38;8.90;99.90
1800;DHT22;919;48.274;12.292;2023-02-20T09:21:08;9.00;99.90
1800;DHT22;919;48.274;12.292;2023-02-20T09:23:35;9.10;99.90
1800;DHT22;919;48.274;12.292;2023-02-20T09:26:03;9.20;99.90
1800;DHT22;919;48.274;12.292;2023-02-20T09:28:29;9.20;99.90
1800;DHT22;919;48.274;12.292;2023-02-20T09:30:57;9.20;99.90
1800;DHT22;919;48.274;12.292;2023-02-20T09:33:26;9.30;99.90
1800;DHT22;919;48.274;12.292;2023-02-20T09:35:54;9.20;99.90
1800;DHT22;919;48.274;12.292;2023-02-20T09:38:22;9.10;99.90
1800;DHT22;919;48.274;12.292;2023-02-20T09:40:54;9.10;99.90
1800;DHT22;919;48.274;12.292;2023-02-20T09:43:29;9.20;99.90
1800;DHT22;919;48.274;12.292;2023-02-20T09:46:02;9.30;99.90
1800;DHT22;919;48.274;12.292;2023-02-20T09:48:42;9.50;99.90
1800;DHT22;919;48.274;12.292;2023-02-20T09:51:15;9.80;99.90
1800;DHT22;919;48.274;12.292;2023-02-20T09:53:50;10.00;99.90
1800;DHT22;919;48.274;12.292;2023-02-20T09:56:21;10.20;99.90
1800;DHT22;919;48.274;12.292;2023-02-20T09:58:53;10.40;99.90
1800;DHT22;919;48.274;12.292;2023-02-20T10:01:24;10.40;99.90
1800;DHT22;919;48.274;12.292;2023-02-20T10:03:54;10.50;99.90
1800;DHT22;919;48.274;12.292;2023-02-20T10:06:25;10.60;99.90
1800;DHT22;919;48.274;12.292;2023-02-20T10:08:52;10.60;99.90
1800;DHT22;919;48.274;12.292;2023-02-20T10:11:28;10.80;99.90
1800;DHT22;919;48.274;12.292;2023-02-20T10:14:03;10.90;99.90
1800;DHT22;919;48.274;12.292;2023-02-20T10:16:38;10.90;99.90
1800;DHT22;919;48.274;12.292;2023-02-20T10:19:17;10.90;99.90
1800;DHT22;919;48.274;12.292;2023-02-20T10:21:55;11.00;99.90
1800;DHT22;919;48.274;12.292;2023-02-20T10:24:35;11.20;99.90
1800;DHT22;919;48.274;12.292;2023-02-20T10:27:16;11.50;99.90
1800;DHT22;919;48.274;12.292;2023-02-20T10:29:45;11.80;99.90
1800;DHT22;919;48.274;12.292;2023-02-20T10:32:17;11.70;99.90
1800;DHT22;919;48.274;12.292;2023-02-20T10:34:53;11.80;99.90
1800;DHT22;919;48.274;12.292;2023-02-20T10:37:25;11.50;99.90
1800;DHT22;919;48.274;12.292;2023-02-20T10:39:57;11.50;99.90
1800;DHT22;919;48.274;12.292;2023-02-20T10:42:31;11.40;99.90
1800;DHT22;919;48.274;12.292;2023-02-20T10:45:03;11.30;99.90
1800;DHT22;919;48.274;12.292;2023-02-20T10:47:38;11.30;99.90
1800;DHT22;919;48.274;12.292;2023-02-20T10:50:10;11.50;99.90
1800;DHT22;919;48.274;12.292;2023-02-20T10:52:46;11.70;99.90
1800;DHT22;919;48.274;12.292;2023-02-20T10:55:17;11.80;99.90
1800;DHT22;919;48.274;12.292;2023-02-20T10:57:48;12.00;99.90
1800;DHT22;919;48.274;12.292;2023-02-20T11:00:21;12.00;99.90
1800;DHT22;919;48.274;12.292;2023-02-20T11:02:54;12.00;99.90
1800;DHT22;919;48.274;12.292;2023-02-20T11:05:26;12.10;99.90
1800;DHT22;919;48.274;12.292;2023-02-20T11:07:55;12.20;99.90
1800;DHT22;919;48.274;12.292;2023-02-20T11:10:22;12.30;99.90
1800;DHT22;919;48.274;12.292;2023-02-20T11:12:51;12.20;99.90
1800;DHT22;919;48.274;12.292;2023-02-20T11:15:22;12.40;99.90
1800;DHT22;919;48.274;12.292;2023-02-20T11:17:51;12.40;99.90
1800;DHT22;919;48.274;12.292;2023-02-20T11:20:40;12.40;99.90
1800;DHT22;919;48.274;12.292;2023-02-20T11:23:34;12.40;99.90
1800;DHT22;919;48.274;12.292;2023-02-20T11:26:24;12.40;99.90
1800;DHT22;919;48.274;12.292;2023-02-20T11:28:57;12.50;99.90
1800;DHT22;919;48.274;12.292;2023-02-20T11:31:25;12.60;99.90
1800;DHT22;919;48.274;12.292;2023-02-20T11:33:54;12.70;99.90
1800;DHT22;919;48.274;12.292;2023-02-20T11:36:22;12.90;99.90
1800;DHT22;919;48.274;12.292;2023-02-20T11:38:57;12.90;99.90
1800;DHT22;919;48.274;12.292;2023-02-20T11:41:32;12.90;99.90
1800;DHT22;919;48.274;12.292;2023-02-20T11:44:24;13.00;99.90
1800;DHT22;919;48.274;12.292;2023-02-20T11:47:21;13.30;99.90
1800;DHT22;919;48.274;12.292;2023-02-20T11:49:49;13.30;99.90
1800;DHT22;919;48.274;12.292;2023-02-20T11:52:17;13.20;99.90
1800;DHT22;919;48.274;12.292;2023-02-20T11:54:46;13.30;99.90
1800;DHT22;919;48.274;12.292;2023-02-20T11:57:20;13.40;99.90
1800;DHT22;919;48.274;12.292;2023-02-20T11:59:49;13.60;99.90
1800;DHT22;919;48.274;12.292;2023-02-20T12:02:25;13.80;99.90
1800;DHT22;919;48.274;12.292;2023-02-20T12:05:10;13.70;99.90
1800;DHT22;919;48.274;12.292;2023-02-20T12:07:43;13.80;99.90
1800;DHT22;919;48.274;12.292;2023-02-20T12:10:28;13.80;99.90
1800;DHT22;919;48.274;12.292;2023-02-20T12:12:57;13.60;99.90
1800;DHT22;919;48.274;12.292;2023-02-20T12:15:25;13.50;99.90
1800;DHT22;919;48.274;12.292;2023-02-20T12:20:52;13.20;99.90
1800;DHT22;919;48.274;12.292;2023-02-20T12:23:26;13.40;99.90
1800;DHT22;919;48.274;12.292;2023-02-20T12:26:20;13.70;99.90
1800;DHT22;919;48.274;12.292;2023-02-20T12:28:53;13.70;99.90
1800;DHT22;919;48.274;12.292;2023-02-20T12:31:34;13.90;99.90
1800;DHT22;919;48.274;12.292;2023-02-20T12:34:25;14.00;99.90
1800;DHT22;919;48.274;12.292;2023-02-20T12:37:02;14.20;99.90
1800;DHT22;919;48.274;12.292;2023-02-20T12:39:38;14.00;99.90
1800;DHT22;919;48.274;12.292;2023-02-20T12:42:19;13.80;99.90
1800;DHT22;919;48.274;12.292;2023-02-20T12:45:02;14.00;99.90
1800;DHT22;919;48.274;12.292;2023-02-20T12:47:36;14.00;99.90
1800;DHT22;919;48.274;12.292;2023-02-20T12:50:24;14.20;99.90
1800;DHT22;919;48.274;12.292;2023-02-20T12:55:58;14.30;99.90
1800;DHT22;919;48.274;12.292;2023-02-20T12:58:37;14.40;99.90
1800;DHT22;919;48.274;12.292;2023-02-20T13:01:09;14.40;99.90
1800;DHT22;919;48.274;12.292;2023-02-20T13:03:42;14.40;99.90
1800;DHT22;919;48.274;12.292;2023-02-20T13:06:14;14.50;99.90
1800;DHT22;919;48.274;12.292;2023-02-20T13:08:55;14.40;99.90
1800;DHT22;919;48.274;12.292;2023-02-20T13:11:25;14.10;99.90
1800;DHT22;919;48.274;12.292;2023-02-20T13:14:04;13.80;99.90
1800;DHT22;919;48.274;12.292;2023-02-20T13:16:36;13.90;99.90
1800;DHT22;919;48.274;12.292;2023-02-20T13:19:13;14.20;99.90
1800;DHT22;919;48.274;12.292;2023-02-20T13:21:41;14.40;99.90
1800;DHT22;919;48.274;12.292;2023-02-20T13:24:28;14.60;99.90
1800;DHT22;919;48.274;12.292;2023-02-20T13:26:56;14.80;99.90
1800;DHT22;919;48.274;12.292;2023-02-20T13:29:25;14.90;99.90
1800;DHT22;919;48.274;12.292;2023-02-20T13:31:53;14.80;99.90
1800;DHT22;919;48.274;12.292;2023-02-20T13:34:29;14.90;99.90
1800;DHT22;919;48.274;12.292;2023-02-20T13:36:56;15.20;99.90
1800;DHT22;919;48.274;12.292;2023-02-20T13:39:36;15.10;99.90
1800;DHT22;919;48.274;12.292;2023-02-20T13:42:06;15.30;99.90
1800;DHT22;919;48.274;12.292;2023-02-20T13:44:51;15.30;99.90
1800;DHT22;919;48.274;12.292;2023-02-20T13:47:36;15.20;99.90
1800;DHT22;919;48.274;12.292;2023-02-20T13:50:27;15.30;99.90
1800;DHT22;919;48.274;12.292;2023-02-20T13:52:55;15.10;99.90
1800;DHT22;919;48.274;12.292;2023-02-20T13:55:24;15.00;99.90
1800;DHT22;919;48.274;12.292;2023-02-20T13:57:53;15.00;99.90
1800;DHT22;919;48.274;12.292;2023-02-20T14:00:40;15.10;99.90
1800;DHT22;919;48.274;12.292;2023-02-20T14:03:10;15.20;99.90
1800;DHT22;919;48.274;12.292;2023-02-20T14:05:38;15.30;99.90
1800;DHT22;919;48.274;12.292;2023-02-20T14:08:05;15.20;99.90
1800;DHT22;919;48.274;12.292;2023-02-20T14:10:33;15.30;99.90
1800;DHT22;919;48.274;12.292;2023-02-20T14:13:02;15.30;99.90
1800;DHT22;919;48.274;12.292;2023-02-20T14:15:32;15.40;99.90
1800;DHT22;919;48.274;12.292;2023-02-20T14:18:00;15.20;99.90
1800;DHT22;919;48.274;12.292;2023-02-20T14:20:32;15.20;99.90
1800;DHT22;919;48.274;12.292;2023-02-20T14:23:08;15.20;99.90
1800;DHT22;919;48.274;12.292;2023-02-20T14:25:35;15.10;99.90
1800;DHT22;919;48.274;12.292;2023-02-20T14:28:05;15.20;99.90
1800;DHT22;919;48.274;12.292;2023-02-20T14:30:33;15.20;99.90
1800;DHT22;919;48.274;12.292;2023-02-20T14:33:00;15.20;99.90
1800;DHT22;919;48.274;12.292;2023-02-20T14:35:41;14.90;99.90
1800;DHT22;919;48.274;12.292;2023-02-20T14:38:18;14.70;99.90
1800;DHT22;919;48.274;12.292;2023-02-20T14:40:46;14.80;99.90
1800;DHT22;919;48.274;12.292;2023-02-20T14:43:16;14.80;99.90
1800;DHT22;919;48.274;12.292;2023-02-20T14:45:46;14.90;99.90
1800;DHT22;919;48.274;12.292;2023-02-20T14:48:22;14.90;99.90
1800;DHT22;919;48.274;12.292;2023-02-20T14:51:02;14.90;99.90
1800;DHT22;919;48.274;12.292;2023-02-20T14:53:34;14.90;99.90
1800;DHT22;919;48.274;12.292;2023-02-20T14:56:09;14.80;99.90
1800;DHT22;919;48.274;12.292;2023-02-20T14:58:36;14.80;99.90
1800;DHT22;919;48.274;12.292;2023-02-20T15:01:17;14.80;99.90
1800;DHT22;919;48.274;12.292;2023-02-20T15:03:56;14.70;99.90
1800;DHT22;919;48.274;12.292;2023-02-20T15:06:24;14.70;99.90
1800;DHT22;919;48.274;12.292;2023-02-20T15:08:56;14.70;99.90
1800;DHT22;919;48.274;12.292;2023-02-20T15:11:23;14.70;99.90
1800;DHT22;919;48.274;12.292;2023-02-20T15:13:50;14.70;99.90
1800;DHT22;919;48.274;12.292;2023-02-20T15:16:21;14.70;99.90
1800;DHT22;919;48.274;12.292;2023-02-20T15:18:48;14.70;99.90
1800;DHT22;919;48.274;12.292;2023-02-20T15:21:30;14.60;99.90
1800;DHT22;919;48.274;12.292;2023-02-20T15:24:11;14.60;99.90
1800;DHT22;919;48.274;12.292;2023-02-20T15:26:38;14.50;99.90
1800;DHT22;919;48.274;12.292;2023-02-20T15:29:10;14.50;99.90
1800;DHT22;919;48.274;12.292;2023-02-20T15:31:38;14.40;99.90
1800;DHT22;919;48.274;12.292;2023-02-20T15:34:11;14.40;99.90
1800;DHT22;919;48.274;12.292;2023-02-20T15:36:39;14.40;99.90
1800;DHT22;919;48.274;12.292;2023-02-20T15:39:10;14.50;99.90
1800;DHT22;919;48.274;12.292;2023-02-20T15:41:37;14.90;99.90
1800;DHT22;919;48.274;12.292;2023-02-20T15:44:04;15.50;99.90
1800;DHT22;919;48.274;12.292;2023-02-20T15:46:30;15.80;99.90
1800;DHT22;919;48.274;12.292;2023-02-20T15:48:58;15.50;99.90
1800;DHT22;919;48.274;12.292;2023-02-20T15:51:26;15.30;99.90
1800;DHT22;919;48.274;12.292;2023-02-20T15:53:55;14.80;99.90
1800;DHT22;919;48.274;12.292;2023-02-20T15:56:23;14.60;99.90
1800;DHT22;919;48.274;12.292;2023-02-20T15:58:52;14.30;99.90
1800;DHT22;919;48.274;12.292;2023-02-20T16:01:19;14.10;99.90
1800;DHT22;919;48.274;12.292;2023-02-20T16:03:46;13.90;99.90
1800;DHT22;919;48.274;12.292;2023-02-20T16:06:14;13.70;99.90
1800;DHT22;919;48.274;12.292;2023-02-20T16:08:41;13.60;99.90
1800;DHT22;919;48.274;12.292;2023-02-20T16:11:09;13.50;99.90
1800;DHT22;919;48.274;12.292;2023-02-20T16:13:38;13.50;99.90
1800;DHT22;919;48.274;12.292;2023-02-20T16:16:14;13.30;99.90
1800;DHT22;919;48.274;12.292;2023-02-20T16:18:43;13.20;99.90
1800;DHT22;919;48.274;12.292;2023-02-20T16:21:13;13.00;99.90
1800;DHT22;919;48.274;12.292;2023-02-20T16:23:41;12.80;99.90
1800;DHT22;919;48.274;12.292;2023-02-20T16:26:11;12.60;99.90
1800;DHT22;919;48.274;12.292;2023-02-20T16:28:38;12.40;99.90
1800;DHT22;919;48.274;12.292;2023-02-20T16:31:04;12.20;99.90
1800;DHT22;919;48.274;12.292;2023-02-20T16:33:31;12.10;99.90
1800;DHT22;919;48.274;12.292;2023-02-20T16:35:58;11.90;99.90
1800;DHT22;919;48.274;12.292;2023-02-20T16:38:26;11.80;99.90
1800;DHT22;919;48.274;12.292;2023-02-20T16:40:52;11.60;99.90
1800;DHT22;919;48.274;12.292;2023-02-20T16:43:20;11.40;99.90
1800;DHT22;919;48.274;12.292;2023-02-20T16:45:49;11.40;99.90
1800;DHT22;919;48.274;12.292;2023-02-20T16:48:17;11.20;99.90